Current Weather

Rochelle Muni/Koritz Fld

Rochelle, Illinois (KRPJ)

Report from: Monday, August 15, 2022 7:55 PM CDT
Current time: Monday, August 15, 2022 8:21 PM CDT

Nearby weather
Weather history
Weather forecast

Temperature20.3°C (68.5°F)
Dew point19.3°C (66.7°F)
Winds 5 kts (2.6 m/s, 5.8 mph) Northeast (40°)
Visibility10 mi. (16.1 km)
Clouds Scattered clouds 10,000 ft. (3,048 m)
Altimeter30.09 in.Hg (1019 mB)
Relative humidity94 %
Density altitude731 ft. (223 m)
Remarks Fully automated report
Automated weather observing station with precipitation discriminator
Lightning detection system not operating
Flight conditions Visual Meteorological Conditions
Raw dataKRPJ 160055Z AUTO 04005KT 10SM SCT100 20/19 A3009 RMK AO2 T02030193 TSNO
An error has occurred. This application may no longer respond until reloaded. Reload 🗙